sensor_id;sensor_type;location;lat;lon;timestamp;temperature;humidity
38910;DHT22;24676;51.360;12.354;2023-02-13T00:00:36;7.20;99.90
38910;DHT22;24676;51.360;12.354;2023-02-13T00:03:20;7.20;99.90
38910;DHT22;24676;51.360;12.354;2023-02-13T00:06:05;7.10;99.90
38910;DHT22;24676;51.360;12.354;2023-02-13T00:08:49;7.10;99.90
38910;DHT22;24676;51.360;12.354;2023-02-13T00:11:34;7.10;99.90
38910;DHT22;24676;51.360;12.354;2023-02-13T00:14:18;7.00;99.90
38910;DHT22;24676;51.360;12.354;2023-02-13T00:17:02;7.00;99.90
38910;DHT22;24676;51.360;12.354;2023-02-13T00:19:47;7.00;99.90
38910;DHT22;24676;51.360;12.354;2023-02-13T00:22:35;7.00;99.90
38910;DHT22;24676;51.360;12.354;2023-02-13T00:25:20;7.00;99.90
38910;DHT22;24676;51.360;12.354;2023-02-13T00:28:04;7.00;99.90
38910;DHT22;24676;51.360;12.354;2023-02-13T00:30:50;7.00;99.90
38910;DHT22;24676;51.360;12.354;2023-02-13T00:33:34;6.90;99.90
38910;DHT22;24676;51.360;12.354;2023-02-13T00:36:20;6.90;99.90
38910;DHT22;24676;51.360;12.354;2023-02-13T00:39:05;6.90;99.90
38910;DHT22;24676;51.360;12.354;2023-02-13T00:41:49;6.90;99.90
38910;DHT22;24676;51.360;12.354;2023-02-13T00:44:33;6.90;99.90
38910;DHT22;24676;51.360;12.354;2023-02-13T00:47:18;6.90;99.90
38910;DHT22;24676;51.360;12.354;2023-02-13T00:50:04;6.90;99.90
38910;DHT22;24676;51.360;12.354;2023-02-13T00:52:48;6.90;99.90
38910;DHT22;24676;51.360;12.354;2023-02-13T00:55:32;7.00;99.90
38910;DHT22;24676;51.360;12.354;2023-02-13T00:58:19;6.90;99.90
38910;DHT22;24676;51.360;12.354;2023-02-13T01:01:04;6.90;99.90
38910;DHT22;24676;51.360;12.354;2023-02-13T01:03:48;6.90;99.90
38910;DHT22;24676;51.360;12.354;2023-02-13T01:06:33;6.90;99.90
38910;DHT22;24676;51.360;12.354;2023-02-13T01:09:17;6.90;99.90
38910;DHT22;24676;51.360;12.354;2023-02-13T01:12:01;6.90;99.90
38910;DHT22;24676;51.360;12.354;2023-02-13T01:14:46;6.80;99.90
38910;DHT22;24676;51.360;12.354;2023-02-13T01:17:30;6.90;99.90
38910;DHT22;24676;51.360;12.354;2023-02-13T01:20:14;6.90;99.90
38910;DHT22;24676;51.360;12.354;2023-02-13T01:22:59;6.90;99.90
38910;DHT22;24676;51.360;12.354;2023-02-13T01:25:43;6.90;99.90
38910;DHT22;24676;51.360;12.354;2023-02-13T01:28:27;6.90;99.90
38910;DHT22;24676;51.360;12.354;2023-02-13T01:31:11;6.90;99.90
38910;DHT22;24676;51.360;12.354;2023-02-13T01:33:56;6.90;99.90
38910;DHT22;24676;51.360;12.354;2023-02-13T01:36:41;6.90;99.90
38910;DHT22;24676;51.360;12.354;2023-02-13T01:39:26;6.90;99.90
38910;DHT22;24676;51.360;12.354;2023-02-13T01:42:31;6.90;99.90
38910;DHT22;24676;51.360;12.354;2023-02-13T01:45:29;6.90;99.90
38910;DHT22;24676;51.360;12.354;2023-02-13T01:48:24;6.90;99.90
38910;DHT22;24676;51.360;12.354;2023-02-13T01:51:15;6.90;99.90
38910;DHT22;24676;51.360;12.354;2023-02-13T01:54:04;6.90;99.90
38910;DHT22;24676;51.360;12.354;2023-02-13T01:56:52;6.90;99.90
38910;DHT22;24676;51.360;12.354;2023-02-13T01:59:52;6.90;99.90
38910;DHT22;24676;51.360;12.354;2023-02-13T02:02:44;6.90;99.90
38910;DHT22;24676;51.360;12.354;2023-02-13T02:05:30;6.80;99.90
38910;DHT22;24676;51.360;12.354;2023-02-13T02:08:15;6.80;99.90
38910;DHT22;24676;51.360;12.354;2023-02-13T02:11:06;6.80;99.90
38910;DHT22;24676;51.360;12.354;2023-02-13T02:13:53;6.80;99.90
38910;DHT22;24676;51.360;12.354;2023-02-13T02:16:38;6.80;99.90
38910;DHT22;24676;51.360;12.354;2023-02-13T02:19:38;6.80;99.90
38910;DHT22;24676;51.360;12.354;2023-02-13T02:22:44;6.80;99.90
38910;DHT22;24676;51.360;12.354;2023-02-13T02:31:54;6.80;99.90
38910;DHT22;24676;51.360;12.354;2023-02-13T02:35:19;6.70;99.90
38910;DHT22;24676;51.360;12.354;2023-02-13T02:38:23;6.70;99.90
38910;DHT22;24676;51.360;12.354;2023-02-13T02:47:24;6.70;99.90
38910;DHT22;24676;51.360;12.354;2023-02-13T02:50:57;6.60;99.90
38910;DHT22;24676;51.360;12.354;2023-02-13T02:53:55;6.60;99.90
38910;DHT22;24676;51.360;12.354;2023-02-13T02:56:45;6.60;99.90
38910;DHT22;24676;51.360;12.354;2023-02-13T02:59:31;6.60;99.90
38910;DHT22;24676;51.360;12.354;2023-02-13T03:02:36;6.60;99.90
38910;DHT22;24676;51.360;12.354;2023-02-13T03:05:43;6.60;99.90
38910;DHT22;24676;51.360;12.354;2023-02-13T03:08:56;6.60;99.90
38910;DHT22;24676;51.360;12.354;2023-02-13T03:12:01;6.60;99.90
38910;DHT22;24676;51.360;12.354;2023-02-13T03:15:04;6.60;99.90
38910;DHT22;24676;51.360;12.354;2023-02-13T03:17:49;6.60;99.90
38910;DHT22;24676;51.360;12.354;2023-02-13T03:20:57;6.60;99.90
38910;DHT22;24676;51.360;12.354;2023-02-13T03:24:24;6.60;99.90
38910;DHT22;24676;51.360;12.354;2023-02-13T03:33:57;6.60;99.90
38910;DHT22;24676;51.360;12.354;2023-02-13T03:36:49;6.50;99.90
38910;DHT22;24676;51.360;12.354;2023-02-13T03:41:00;6.60;99.90
38910;DHT22;24676;51.360;12.354;2023-02-13T03:43:14;6.50;99.90
38910;DHT22;24676;51.360;12.354;2023-02-13T03:46:01;6.50;99.90
38910;DHT22;24676;51.360;12.354;2023-02-13T03:48:49;6.50;99.90
38910;DHT22;24676;51.360;12.354;2023-02-13T03:51:57;6.50;99.90
38910;DHT22;24676;51.360;12.354;2023-02-13T03:54:46;6.50;99.90
38910;DHT22;24676;51.360;12.354;2023-02-13T03:57:52;6.50;99.90
38910;DHT22;24676;51.360;12.354;2023-02-13T04:01:00;6.50;99.90
38910;DHT22;24676;51.360;12.354;2023-02-13T04:03:51;6.40;99.90
38910;DHT22;24676;51.360;12.354;2023-02-13T04:06:53;6.50;99.90
38910;DHT22;24676;51.360;12.354;2023-02-13T04:09:40;6.50;99.90
38910;DHT22;24676;51.360;12.354;2023-02-13T04:15:57;6.50;99.90
38910;DHT22;24676;51.360;12.354;2023-02-13T04:18:44;6.50;99.90
38910;DHT22;24676;51.360;12.354;2023-02-13T04:21:33;6.50;99.90
38910;DHT22;24676;51.360;12.354;2023-02-13T04:24:18;6.50;99.90
38910;DHT22;24676;51.360;12.354;2023-02-13T04:27:02;6.50;99.90
38910;DHT22;24676;51.360;12.354;2023-02-13T04:29:47;6.50;99.90
38910;DHT22;24676;51.360;12.354;2023-02-13T04:32:31;6.50;99.90
38910;DHT22;24676;51.360;12.354;2023-02-13T04:35:15;6.50;99.90
38910;DHT22;24676;51.360;12.354;2023-02-13T04:37:59;6.50;99.90
38910;DHT22;24676;51.360;12.354;2023-02-13T04:40:44;6.50;99.90
38910;DHT22;24676;51.360;12.354;2023-02-13T04:43:28;6.40;99.90
38910;DHT22;24676;51.360;12.354;2023-02-13T04:46:12;6.40;99.90
38910;DHT22;24676;51.360;12.354;2023-02-13T04:48:57;6.40;99.90
38910;DHT22;24676;51.360;12.354;2023-02-13T04:51:41;6.40;99.90
38910;DHT22;24676;51.360;12.354;2023-02-13T04:54:25;6.40;99.90
38910;DHT22;24676;51.360;12.354;2023-02-13T04:57:09;6.40;99.90
38910;DHT22;24676;51.360;12.354;2023-02-13T04:59:54;6.40;99.90
38910;DHT22;24676;51.360;12.354;2023-02-13T05:02:38;6.30;99.90
38910;DHT22;24676;51.360;12.354;2023-02-13T05:05:23;6.30;99.90
38910;DHT22;24676;51.360;12.354;2023-02-13T05:08:07;6.30;99.90
38910;DHT22;24676;51.360;12.354;2023-02-13T05:10:52;6.30;99.90
38910;DHT22;24676;51.360;12.354;2023-02-13T05:13:36;6.30;99.90
38910;DHT22;24676;51.360;12.354;2023-02-13T05:16:20;6.30;99.90
38910;DHT22;24676;51.360;12.354;2023-02-13T05:19:05;6.30;99.90
38910;DHT22;24676;51.360;12.354;2023-02-13T05:21:49;6.30;99.90
38910;DHT22;24676;51.360;12.354;2023-02-13T05:24:52;6.30;99.90
38910;DHT22;24676;51.360;12.354;2023-02-13T05:27:36;6.20;99.90
38910;DHT22;24676;51.360;12.354;2023-02-13T05:30:20;6.30;99.90
38910;DHT22;24676;51.360;12.354;2023-02-13T05:33:05;6.20;99.90
38910;DHT22;24676;51.360;12.354;2023-02-13T05:35:49;6.30;99.90
38910;DHT22;24676;51.360;12.354;2023-02-13T05:38:33;6.30;99.90
38910;DHT22;24676;51.360;12.354;2023-02-13T05:41:18;6.30;99.90
38910;DHT22;24676;51.360;12.354;2023-02-13T05:44:02;6.40;99.90
38910;DHT22;24676;51.360;12.354;2023-02-13T05:46:46;6.40;99.90
38910;DHT22;24676;51.360;12.354;2023-02-13T05:49:32;6.60;99.90
38910;DHT22;24676;51.360;12.354;2023-02-13T05:52:16;6.70;99.90
38910;DHT22;24676;51.360;12.354;2023-02-13T05:55:00;6.80;99.90
38910;DHT22;24676;51.360;12.354;2023-02-13T05:57:44;6.80;99.90
38910;DHT22;24676;51.360;12.354;2023-02-13T06:00:29;6.70;99.90
38910;DHT22;24676;51.360;12.354;2023-02-13T06:03:13;6.80;99.90
38910;DHT22;24676;51.360;12.354;2023-02-13T06:05:58;6.70;99.90
38910;DHT22;24676;51.360;12.354;2023-02-13T06:08:43;6.80;99.90
38910;DHT22;24676;51.360;12.354;2023-02-13T06:11:27;6.80;99.90
38910;DHT22;24676;51.360;12.354;2023-02-13T06:14:11;6.80;99.90
38910;DHT22;24676;51.360;12.354;2023-02-13T06:16:57;6.70;99.90
38910;DHT22;24676;51.360;12.354;2023-02-13T06:19:41;6.70;99.90
38910;DHT22;24676;51.360;12.354;2023-02-13T06:22:25;6.70;99.90
38910;DHT22;24676;51.360;12.354;2023-02-13T06:25:09;6.70;99.90
38910;DHT22;24676;51.360;12.354;2023-02-13T06:27:53;6.70;99.90
38910;DHT22;24676;51.360;12.354;2023-02-13T06:30:38;6.60;99.90
38910;DHT22;24676;51.360;12.354;2023-02-13T06:33:22;6.60;99.90
38910;DHT22;24676;51.360;12.354;2023-02-13T06:36:06;6.60;99.90
38910;DHT22;24676;51.360;12.354;2023-02-13T06:38:50;6.60;99.90
38910;DHT22;24676;51.360;12.354;2023-02-13T06:41:34;6.60;99.90
38910;DHT22;24676;51.360;12.354;2023-02-13T06:44:18;6.60;99.90
38910;DHT22;24676;51.360;12.354;2023-02-13T06:47:02;6.70;99.90
38910;DHT22;24676;51.360;12.354;2023-02-13T06:49:46;6.60;99.90
38910;DHT22;24676;51.360;12.354;2023-02-13T06:52:30;6.50;99.90
38910;DHT22;24676;51.360;12.354;2023-02-13T06:55:15;6.50;99.90
38910;DHT22;24676;51.360;12.354;2023-02-13T06:58:00;6.50;99.90
38910;DHT22;24676;51.360;12.354;2023-02-13T07:00:44;6.40;99.90
38910;DHT22;24676;51.360;12.354;2023-02-13T07:03:28;6.50;99.90
38910;DHT22;24676;51.360;12.354;2023-02-13T07:06:17;6.40;99.90
38910;DHT22;24676;51.360;12.354;2023-02-13T07:09:04;6.40;99.90
38910;DHT22;24676;51.360;12.354;2023-02-13T07:11:49;6.40;99.90
38910;DHT22;24676;51.360;12.354;2023-02-13T07:14:33;6.50;99.90
38910;DHT22;24676;51.360;12.354;2023-02-13T07:17:18;6.50;99.90
38910;DHT22;24676;51.360;12.354;2023-02-13T07:20:03;6.60;99.90
38910;DHT22;24676;51.360;12.354;2023-02-13T07:22:47;6.60;99.90
38910;DHT22;24676;51.360;12.354;2023-02-13T07:25:32;6.60;99.90
38910;DHT22;24676;51.360;12.354;2023-02-13T07:28:16;6.70;99.90
38910;DHT22;24676;51.360;12.354;2023-02-13T07:31:03;6.80;99.90
38910;DHT22;24676;51.360;12.354;2023-02-13T07:33:49;6.90;99.90
38910;DHT22;24676;51.360;12.354;2023-02-13T07:36:33;6.90;99.90
38910;DHT22;24676;51.360;12.354;2023-02-13T07:39:18;6.90;99.90
38910;DHT22;24676;51.360;12.354;2023-02-13T07:42:02;7.00;99.90
38910;DHT22;24676;51.360;12.354;2023-02-13T07:44:46;7.10;99.90
38910;DHT22;24676;51.360;12.354;2023-02-13T07:47:32;7.20;99.90
38910;DHT22;24676;51.360;12.354;2023-02-13T07:50:17;7.20;99.90
38910;DHT22;24676;51.360;12.354;2023-02-13T07:53:02;7.30;99.90
38910;DHT22;24676;51.360;12.354;2023-02-13T07:55:46;7.30;99.90
38910;DHT22;24676;51.360;12.354;2023-02-13T07:58:30;7.40;99.90
38910;DHT22;24676;51.360;12.354;2023-02-13T08:01:15;7.50;99.90
38910;DHT22;24676;51.360;12.354;2023-02-13T08:03:59;7.60;99.90
38910;DHT22;24676;51.360;12.354;2023-02-13T08:06:44;7.70;99.90
38910;DHT22;24676;51.360;12.354;2023-02-13T08:09:28;7.70;99.90
38910;DHT22;24676;51.360;12.354;2023-02-13T08:12:32;7.70;99.90
38910;DHT22;24676;51.360;12.354;2023-02-13T08:15:17;7.60;99.90
38910;DHT22;24676;51.360;12.354;2023-02-13T08:18:02;7.60;99.90
38910;DHT22;24676;51.360;12.354;2023-02-13T08:20:47;7.50;99.90
38910;DHT22;24676;51.360;12.354;2023-02-13T08:23:31;7.60;99.90
38910;DHT22;24676;51.360;12.354;2023-02-13T08:26:15;7.60;99.90
38910;DHT22;24676;51.360;12.354;2023-02-13T08:29:00;7.60;99.90
38910;DHT22;24676;51.360;12.354;2023-02-13T08:31:44;7.60;99.90
38910;DHT22;24676;51.360;12.354;2023-02-13T08:34:28;7.60;99.90
38910;DHT22;24676;51.360;12.354;2023-02-13T08:37:12;7.60;99.90
38910;DHT22;24676;51.360;12.354;2023-02-13T08:39:56;7.60;99.90
38910;DHT22;24676;51.360;12.354;2023-02-13T08:42:40;7.70;99.90
38910;DHT22;24676;51.360;12.354;2023-02-13T08:45:25;7.70;99.90
38910;DHT22;24676;51.360;12.354;2023-02-13T08:48:09;7.70;99.90
38910;DHT22;24676;51.360;12.354;2023-02-13T08:50:53;7.60;99.90
38910;DHT22;24676;51.360;12.354;2023-02-13T08:53:37;7.60;99.90
38910;DHT22;24676;51.360;12.354;2023-02-13T08:56:22;7.60;99.90
38910;DHT22;24676;51.360;12.354;2023-02-13T08:59:06;7.60;99.90
38910;DHT22;24676;51.360;12.354;2023-02-13T09:01:50;7.60;99.90
38910;DHT22;24676;51.360;12.354;2023-02-13T09:04:34;7.70;99.90
38910;DHT22;24676;51.360;12.354;2023-02-13T09:07:19;7.70;99.90
38910;DHT22;24676;51.360;12.354;2023-02-13T09:10:03;7.70;99.90
38910;DHT22;24676;51.360;12.354;2023-02-13T09:12:52;7.80;99.90
38910;DHT22;24676;51.360;12.354;2023-02-13T09:15:40;7.70;99.90
38910;DHT22;24676;51.360;12.354;2023-02-13T09:18:26;7.60;99.90
38910;DHT22;24676;51.360;12.354;2023-02-13T09:21:11;7.50;99.90
38910;DHT22;24676;51.360;12.354;2023-02-13T09:23:55;7.40;99.90
38910;DHT22;24676;51.360;12.354;2023-02-13T09:26:39;7.40;99.90
38910;DHT22;24676;51.360;12.354;2023-02-13T09:29:23;7.50;99.90
38910;DHT22;24676;51.360;12.354;2023-02-13T09:32:07;7.50;99.90
38910;DHT22;24676;51.360;12.354;2023-02-13T09:34:52;7.60;99.90
38910;DHT22;24676;51.360;12.354;2023-02-13T09:37:36;7.70;99.90
38910;DHT22;24676;51.360;12.354;2023-02-13T09:40:36;7.70;99.90
38910;DHT22;24676;51.360;12.354;2023-02-13T09:43:38;7.60;99.90
38910;DHT22;24676;51.360;12.354;2023-02-13T09:49:19;7.70;99.90
38910;DHT22;24676;51.360;12.354;2023-02-13T09:52:08;7.80;99.90
38910;DHT22;24676;51.360;12.354;2023-02-13T09:54:53;7.90;99.90
38910;DHT22;24676;51.360;12.354;2023-02-13T09:57:43;7.90;99.90
38910;DHT22;24676;51.360;12.354;2023-02-13T10:00:51;7.90;99.90
38910;DHT22;24676;51.360;12.354;2023-02-13T10:03:42;7.80;99.90
38910;DHT22;24676;51.360;12.354;2023-02-13T10:06:31;7.80;99.90
38910;DHT22;24676;51.360;12.354;2023-02-13T10:18:20;7.90;99.90
38910;DHT22;24676;51.360;12.354;2023-02-13T10:21:06;7.90;99.90
38910;DHT22;24676;51.360;12.354;2023-02-13T10:24:13;7.90;99.90
38910;DHT22;24676;51.360;12.354;2023-02-13T10:26:59;7.90;99.90
38910;DHT22;24676;51.360;12.354;2023-02-13T10:29:57;7.90;99.90
38910;DHT22;24676;51.360;12.354;2023-02-13T10:39:25;8.00;99.90
38910;DHT22;24676;51.360;12.354;2023-02-13T10:51:18;8.40;99.90
38910;DHT22;24676;51.360;12.354;2023-02-13T10:57:18;8.60;99.90
38910;DHT22;24676;51.360;12.354;2023-02-13T11:02:58;8.70;99.90
38910;DHT22;24676;51.360;12.354;2023-02-13T11:05:42;8.80;99.90
38910;DHT22;24676;51.360;12.354;2023-02-13T11:11:36;8.70;99.90
38910;DHT22;24676;51.360;12.354;2023-02-13T11:14:25;8.60;99.90
38910;DHT22;24676;51.360;12.354;2023-02-13T11:17:16;8.60;99.90
38910;DHT22;24676;51.360;12.354;2023-02-13T11:20:26;8.70;99.90
38910;DHT22;24676;51.360;12.354;2023-02-13T11:23:32;8.70;99.90
38910;DHT22;24676;51.360;12.354;2023-02-13T11:29:15;8.80;99.90
38910;DHT22;24676;51.360;12.354;2023-02-13T11:32:26;8.90;99.90
38910;DHT22;24676;51.360;12.354;2023-02-13T11:35:32;9.20;99.90
38910;DHT22;24676;51.360;12.354;2023-02-13T11:41:12;9.20;99.90
38910;DHT22;24676;51.360;12.354;2023-02-13T11:44:00;9.20;99.90
38910;DHT22;24676;51.360;12.354;2023-02-13T11:46:47;9.30;99.90
38910;DHT22;24676;51.360;12.354;2023-02-13T11:49:37;9.30;99.90
38910;DHT22;24676;51.360;12.354;2023-02-13T11:52:28;9.20;99.90
38910;DHT22;24676;51.360;12.354;2023-02-13T11:55:34;9.20;99.90
38910;DHT22;24676;51.360;12.354;2023-02-13T11:58:25;9.20;99.90
38910;DHT22;24676;51.360;12.354;2023-02-13T12:01:24;9.10;99.90
38910;DHT22;24676;51.360;12.354;2023-02-13T12:04:17;9.10;99.90
38910;DHT22;24676;51.360;12.354;2023-02-13T12:07:10;9.10;99.90
38910;DHT22;24676;51.360;12.354;2023-02-13T12:13:24;9.00;99.90
38910;DHT22;24676;51.360;12.354;2023-02-13T12:16:24;8.90;99.90
38910;DHT22;24676;51.360;12.354;2023-02-13T12:19:13;8.90;99.90
38910;DHT22;24676;51.360;12.354;2023-02-13T12:31:51;9.00;99.90
38910;DHT22;24676;51.360;12.354;2023-02-13T12:40:48;8.90;99.90
38910;DHT22;24676;51.360;12.354;2023-02-13T12:44:36;9.00;99.90
38910;DHT22;24676;51.360;12.354;2023-02-13T12:47:27;9.00;99.90
38910;DHT22;24676;51.360;12.354;2023-02-13T12:56:37;9.20;99.90
38910;DHT22;24676;51.360;12.354;2023-02-13T12:59:47;9.20;99.90
38910;DHT22;24676;51.360;12.354;2023-02-13T13:09:46;8.90;99.90
38910;DHT22;24676;51.360;12.354;2023-02-13T13:15:16;8.90;99.90
38910;DHT22;24676;51.360;12.354;2023-02-13T13:18:13;8.90;99.90
38910;DHT22;24676;51.360;12.354;2023-02-13T13:27:03;8.70;99.90
38910;DHT22;24676;51.360;12.354;2023-02-13T13:29:58;8.70;99.90
38910;DHT22;24676;51.360;12.354;2023-02-13T13:32:45;8.60;99.90
38910;DHT22;24676;51.360;12.354;2023-02-13T13:35:32;8.60;99.90
38910;DHT22;24676;51.360;12.354;2023-02-13T13:38:36;8.60;99.90
38910;DHT22;24676;51.360;12.354;2023-02-13T13:41:33;8.60;99.90
38910;DHT22;24676;51.360;12.354;2023-02-13T13:50:24;8.60;99.90
38910;DHT22;24676;51.360;12.354;2023-02-13T13:53:13;8.70;99.90
38910;DHT22;24676;51.360;12.354;2023-02-13T13:56:00;8.80;99.90
38910;DHT22;24676;51.360;12.354;2023-02-13T13:58:49;8.70;99.90
38910;DHT22;24676;51.360;12.354;2023-02-13T14:01:33;8.70;99.90
38910;DHT22;24676;51.360;12.354;2023-02-13T14:04:37;8.70;99.90
38910;DHT22;24676;51.360;12.354;2023-02-13T14:07:23;8.50;99.90
38910;DHT22;24676;51.360;12.354;2023-02-13T14:13:05;8.50;99.90
38910;DHT22;24676;51.360;12.354;2023-02-13T14:15:52;8.60;99.90
38910;DHT22;24676;51.360;12.354;2023-02-13T14:18:44;8.60;99.90
38910;DHT22;24676;51.360;12.354;2023-02-13T14:21:29;8.60;99.90
38910;DHT22;24676;51.360;12.354;2023-02-13T14:24:17;8.60;99.90
38910;DHT22;24676;51.360;12.354;2023-02-13T14:27:02;8.60;99.90
38910;DHT22;24676;51.360;12.354;2023-02-13T14:29:47;8.60;99.90
38910;DHT22;24676;51.360;12.354;2023-02-13T14:32:38;8.50;99.90
38910;DHT22;24676;51.360;12.354;2023-02-13T14:35:27;8.40;99.90
38910;DHT22;24676;51.360;12.354;2023-02-13T14:38:23;8.40;99.90
38910;DHT22;24676;51.360;12.354;2023-02-13T14:44:47;8.20;99.90
38910;DHT22;24676;51.360;12.354;2023-02-13T14:47:46;8.20;99.90
38910;DHT22;24676;51.360;12.354;2023-02-13T14:50:50;8.10;99.90
38910;DHT22;24676;51.360;12.354;2023-02-13T14:53:50;8.20;99.90
38910;DHT22;24676;51.360;12.354;2023-02-13T14:56:36;8.10;99.90
38910;DHT22;24676;51.360;12.354;2023-02-13T14:59:24;8.10;99.90
38910;DHT22;24676;51.360;12.354;2023-02-13T15:02:23;8.20;99.90
38910;DHT22;24676;51.360;12.354;2023-02-13T15:05:13;8.10;99.90
38910;DHT22;24676;51.360;12.354;2023-02-13T15:08:14;8.10;99.90
38910;DHT22;24676;51.360;12.354;2023-02-13T15:11:00;8.10;99.90
38910;DHT22;24676;51.360;12.354;2023-02-13T15:13:44;8.10;99.90
38910;DHT22;24676;51.360;12.354;2023-02-13T15:16:29;8.10;99.90
38910;DHT22;24676;51.360;12.354;2023-02-13T15:19:15;8.20;99.90
38910;DHT22;24676;51.360;12.354;2023-02-13T15:22:03;8.20;99.90
38910;DHT22;24676;51.360;12.354;2023-02-13T15:24:48;8.10;99.90
38910;DHT22;24676;51.360;12.354;2023-02-13T15:27:39;8.00;99.90
38910;DHT22;24676;51.360;12.354;2023-02-13T15:30:27;8.00;99.90
38910;DHT22;24676;51.360;12.354;2023-02-13T15:33:20;7.90;99.90
38910;DHT22;24676;51.360;12.354;2023-02-13T15:36:05;7.80;99.90
38910;DHT22;24676;51.360;12.354;2023-02-13T15:38:58;7.80;99.90
38910;DHT22;24676;51.360;12.354;2023-02-13T15:41:45;7.70;99.90
38910;DHT22;24676;51.360;12.354;2023-02-13T15:44:33;7.60;99.90
38910;DHT22;24676;51.360;12.354;2023-02-13T15:47:30;7.60;99.90
38910;DHT22;24676;51.360;12.354;2023-02-13T15:53:12;7.60;99.90
38910;DHT22;24676;51.360;12.354;2023-02-13T15:56:03;7.70;99.90
38910;DHT22;24676;51.360;12.354;2023-02-13T15:58:49;7.60;99.90
38910;DHT22;24676;51.360;12.354;2023-02-13T16:01:34;7.60;99.90
38910;DHT22;24676;51.360;12.354;2023-02-13T16:04:19;7.60;99.90
38910;DHT22;24676;51.360;12.354;2023-02-13T16:07:09;7.40;99.90
38910;DHT22;24676;51.360;12.354;2023-02-13T16:13:15;7.30;99.90
38910;DHT22;24676;51.360;12.354;2023-02-13T16:16:07;7.30;99.90
38910;DHT22;24676;51.360;12.354;2023-02-13T16:18:51;7.30;99.90
38910;DHT22;24676;51.360;12.354;2023-02-13T16:21:36;7.20;99.90
38910;DHT22;24676;51.360;12.354;2023-02-13T16:24:20;7.20;99.90
38910;DHT22;24676;51.360;12.354;2023-02-13T16:27:12;7.20;99.90
38910;DHT22;24676;51.360;12.354;2023-02-13T16:30:03;7.20;99.90
38910;DHT22;24676;51.360;12.354;2023-02-13T16:32:48;7.20;99.90
38910;DHT22;24676;51.360;12.354;2023-02-13T16:35:35;7.20;99.90
38910;DHT22;24676;51.360;12.354;2023-02-13T16:38:29;7.20;99.90
38910;DHT22;24676;51.360;12.354;2023-02-13T16:44:29;7.10;99.90
38910;DHT22;24676;51.360;12.354;2023-02-13T16:47:22;7.20;99.90
38910;DHT22;24676;51.360;12.354;2023-02-13T16:50:15;7.10;99.90
38910;DHT22;24676;51.360;12.354;2023-02-13T16:53:01;7.10;99.90
38910;DHT22;24676;51.360;12.354;2023-02-13T16:55:55;7.10;99.90
38910;DHT22;24676;51.360;12.354;2023-02-13T16:58:40;7.00;99.90
38910;DHT22;24676;51.360;12.354;2023-02-13T17:01:24;7.00;99.90
38910;DHT22;24676;51.360;12.354;2023-02-13T17:04:21;7.00;99.90
38910;DHT22;24676;51.360;12.354;2023-02-13T17:07:14;7.00;99.90
38910;DHT22;24676;51.360;12.354;2023-02-13T17:10:10;7.00;99.90
38910;DHT22;24676;51.360;12.354;2023-02-13T17:13:10;7.00;99.90
38910;DHT22;24676;51.360;12.354;2023-02-13T17:15:55;6.90;99.90
38910;DHT22;24676;51.360;12.354;2023-02-13T17:18:41;6.90;99.90
38910;DHT22;24676;51.360;12.354;2023-02-13T17:21:26;6.80;99.90
38910;DHT22;24676;51.360;12.354;2023-02-13T17:24:16;6.80;99.90
38910;DHT22;24676;51.360;12.354;2023-02-13T17:27:01;6.80;99.90
38910;DHT22;24676;51.360;12.354;2023-02-13T17:29:45;6.80;99.90
38910;DHT22;24676;51.360;12.354;2023-02-13T17:32:30;6.80;99.90
38910;DHT22;24676;51.360;12.354;2023-02-13T17:35:15;6.80;99.90
38910;DHT22;24676;51.360;12.354;2023-02-13T17:38:00;6.80;99.90
38910;DHT22;24676;51.360;12.354;2023-02-13T17:40:44;6.80;99.90
38910;DHT22;24676;51.360;12.354;2023-02-13T17:43:29;6.70;99.90
38910;DHT22;24676;51.360;12.354;2023-02-13T17:46:13;6.70;99.90
38910;DHT22;24676;51.360;12.354;2023-02-13T17:49:00;6.70;99.90
38910;DHT22;24676;51.360;12.354;2023-02-13T17:51:44;6.80;99.90
38910;DHT22;24676;51.360;12.354;2023-02-13T17:54:29;6.80;99.90
38910;DHT22;24676;51.360;12.354;2023-02-13T17:57:15;6.70;99.90
38910;DHT22;24676;51.360;12.354;2023-02-13T17:59:59;6.70;99.90
38910;DHT22;24676;51.360;12.354;2023-02-13T18:02:49;6.60;99.90
38910;DHT22;24676;51.360;12.354;2023-02-13T18:05:33;6.60;99.90
38910;DHT22;24676;51.360;12.354;2023-02-13T18:08:18;6.50;99.90
38910;DHT22;24676;51.360;12.354;2023-02-13T18:11:09;6.50;99.90
38910;DHT22;24676;51.360;12.354;2023-02-13T18:13:53;6.50;99.90
38910;DHT22;24676;51.360;12.354;2023-02-13T18:16:37;6.50;99.90
38910;DHT22;24676;51.360;12.354;2023-02-13T18:19:22;6.50;99.90
38910;DHT22;24676;51.360;12.354;2023-02-13T18:22:07;6.50;99.90
38910;DHT22;24676;51.360;12.354;2023-02-13T18:24:51;6.50;99.90
38910;DHT22;24676;51.360;12.354;2023-02-13T18:27:36;6.50;99.90
38910;DHT22;24676;51.360;12.354;2023-02-13T18:30:20;6.50;99.90
38910;DHT22;24676;51.360;12.354;2023-02-13T18:33:05;6.40;99.90
38910;DHT22;24676;51.360;12.354;2023-02-13T18:35:50;6.40;99.90
38910;DHT22;24676;51.360;12.354;2023-02-13T18:38:34;6.30;99.90
38910;DHT22;24676;51.360;12.354;2023-02-13T18:41:19;6.30;99.90
38910;DHT22;24676;51.360;12.354;2023-02-13T18:44:05;6.20;99.90
38910;DHT22;24676;51.360;12.354;2023-02-13T18:46:50;6.10;99.90
38910;DHT22;24676;51.360;12.354;2023-02-13T18:49:34;6.00;99.90
38910;DHT22;24676;51.360;12.354;2023-02-13T18:52:19;5.90;99.90
38910;DHT22;24676;51.360;12.354;2023-02-13T18:55:04;5.70;99.90
38910;DHT22;24676;51.360;12.354;2023-02-13T18:57:53;5.50;99.90
38910;DHT22;24676;51.360;12.354;2023-02-13T19:00:37;5.40;99.90
38910;DHT22;24676;51.360;12.354;2023-02-13T19:03:22;5.20;99.90
38910;DHT22;24676;51.360;12.354;2023-02-13T19:06:09;5.00;99.90
38910;DHT22;24676;51.360;12.354;2023-02-13T19:08:55;4.80;99.90
38910;DHT22;24676;51.360;12.354;2023-02-13T19:11:40;4.70;99.90
38910;DHT22;24676;51.360;12.354;2023-02-13T19:14:25;4.60;99.90
38910;DHT22;24676;51.360;12.354;2023-02-13T19:17:10;4.40;99.90
38910;DHT22;24676;51.360;12.354;2023-02-13T19:19:54;4.30;99.90
38910;DHT22;24676;51.360;12.354;2023-02-13T19:22:38;4.20;99.90
38910;DHT22;24676;51.360;12.354;2023-02-13T19:25:23;4.10;99.90
38910;DHT22;24676;51.360;12.354;2023-02-13T19:28:07;4.00;99.90
38910;DHT22;24676;51.360;12.354;2023-02-13T19:30:51;3.90;99.90
38910;DHT22;24676;51.360;12.354;2023-02-13T19:33:37;3.90;99.90
38910;DHT22;24676;51.360;12.354;2023-02-13T19:36:24;3.70;99.90
38910;DHT22;24676;51.360;12.354;2023-02-13T19:39:10;3.60;99.90
38910;DHT22;24676;51.360;12.354;2023-02-13T19:41:54;3.60;99.90
38910;DHT22;24676;51.360;12.354;2023-02-13T19:44:38;3.50;99.90
38910;DHT22;24676;51.360;12.354;2023-02-13T19:47:23;3.40;99.90
38910;DHT22;24676;51.360;12.354;2023-02-13T19:50:08;3.30;99.90
38910;DHT22;24676;51.360;12.354;2023-02-13T19:52:52;3.30;99.90